Time;durP1;ratioP1;P1;durP2;ratioP2;P2;SDS_P1;SDS_P2;PMS_P1;PMS_P2;Temp;Humidity;BMP_temperature;BMP_pressure;BME280_temperature;BME280_humidity;BME280_pressure;Samples;Min_cycle;Max_cycle;Signal;HPM_P1;HPM_P2
2022/02/12 00:02:16;;;;;;;;;;;;;;;5.63;59.50;101031.66;4293995;33;20351;-91
2022/02/12 00:04:41;;;;;;;;;;;;;;;5.57;59.49;101035.06;4294012;33;20010;-91
2022/02/12 00:07:06;;;;;;;;;;;;;;;5.65;59.50;101043.72;4294213;33;20003;-90
2022/02/12 00:09:31;;;;;;;;;;;;;;;5.61;59.50;101039.41;4293873;33;20038;-91
2022/02/12 00:11:57;;;;;;;;;;;;;;;5.59;59.50;101045.41;4294153;33;19980;-89
2022/02/12 00:14:22;;;;;;;;;;;;;;;5.52;59.49;101042.78;4294204;33;20382;-91
2022/02/12 00:16:47;;;;;;;;;;;;;;;5.38;59.48;101048.66;4306427;33;19999;-91
2022/02/12 00:19:13;;;;;;;;;;;;;;;5.51;59.49;101043.63;4294014;33;20023;-90
2022/02/12 00:21:38;;;;;;;;;;;;;;;5.43;59.49;101040.09;4294069;33;19996;-91
2022/02/12 00:24:03;;;;;;;;;;;;;;;5.54;59.50;101042.78;4294055;33;20250;-91
2022/02/12 00:26:29;;;;;;;;;;;;;;;5.64;59.50;101044.59;4294361;33;20051;-92
2022/02/12 00:28:54;;;;;;;;;;;;;;;5.46;59.50;101044.44;4294036;33;20023;-91
2022/02/12 00:31:19;;;;;;;;;;;;;;;5.46;59.50;101052.19;4293854;33;20216;-92
2022/02/12 00:33:44;;;;;;;;;;;;;;;5.40;59.48;101060.72;4294270;33;20055;-91
2022/02/12 00:36:10;;;;;;;;;;;;;;;5.30;59.47;101066.66;4294155;33;20003;-91
2022/02/12 00:38:35;;;;;;;;;;;;;;;5.38;59.48;101061.56;4293849;33;19999;-92
2022/02/12 00:41:00;;;;;;;;;;;;;;;5.44;59.48;101072.84;4294225;33;20035;-91
2022/02/12 00:43:25;;;;;;;;;;;;;;;5.22;59.47;101076.91;4294067;33;20331;-91
2022/02/12 00:45:51;;;;;;;;;;;;;;;5.34;59.48;101089.06;4292771;33;21411;-91
2022/02/12 00:48:16;;;;;;;;;;;;;;;5.25;59.48;101086.41;4305938;33;19988;-90
2022/02/12 00:50:41;;;;;;;;;;;;;;;5.15;59.47;101093.16;4293269;33;24310;-91
2022/02/12 00:53:06;;;;;;;;;;;;;;;5.35;59.48;101092.50;4293501;33;20331;-91
2022/02/12 00:55:32;;;;;;;;;;;;;;;5.20;59.47;101098.34;4293746;33;19996;-91
2022/02/12 00:57:57;;;;;;;;;;;;;;;5.10;59.47;101096.53;4293807;33;20008;-91
2022/02/12 01:00:22;;;;;;;;;;;;;;;5.04;59.46;101091.31;4305982;33;20032;-90
2022/02/12 01:02:47;;;;;;;;;;;;;;;5.11;59.47;101091.37;4305319;33;20022;-87
2022/02/12 01:05:12;;;;;;;;;;;;;;;5.08;59.46;101095.66;4305044;33;19992;-88
2022/02/12 01:07:38;;;;;;;;;;;;;;;4.92;59.45;101112.66;4304422;33;23419;-88
2022/02/12 01:10:03;;;;;;;;;;;;;;;4.76;59.44;101101.28;4292790;33;20003;-89
2022/02/12 01:12:28;;;;;;;;;;;;;;;4.71;59.43;101102.91;4329357;33;20019;-88
2022/02/12 01:14:54;;;;;;;;;;;;;;;4.78;59.44;101106.47;4305035;33;20003;-89
2022/02/12 01:17:19;;;;;;;;;;;;;;;4.56;59.43;101113.03;4304481;33;24319;-88
2022/02/12 01:19:46;;;;;;;;;;;;;;;4.65;59.44;101109.72;4317002;33;19996;-87
2022/02/12 01:22:11;;;;;;;;;;;;;;;4.77;59.44;101112.47;4286884;33;20016;-87
2022/02/12 01:24:39;;;;;;;;;;;;;;;4.77;59.44;101107.31;4303484;33;20286;-86
2022/02/12 01:27:05;;;;;;;;;;;;;;;4.83;59.45;101103.09;4293145;33;19988;-86
2022/02/12 01:29:30;;;;;;;;;;;;;;;4.68;59.44;101107.16;4304932;33;19988;-87
2022/02/12 01:32:03;;;;;;;;;;;;;;;4.60;59.44;101099.34;4292231;33;27451;-85
2022/02/12 01:34:28;;;;;;;;;;;;;;;4.53;59.43;101095.81;4305950;33;19996;-85
2022/02/12 01:36:54;;;;;;;;;;;;;;;4.58;59.44;101104.47;4292544;33;20055;-86
2022/02/12 01:39:19;;;;;;;;;;;;;;;4.59;59.44;101113.06;4304481;33;19976;-86
2022/02/12 01:41:44;;;;;;;;;;;;;;;4.66;59.44;101112.31;4304668;33;19992;-85
2022/02/12 01:44:09;;;;;;;;;;;;;;;4.72;59.43;101111.53;4318233;33;20357;-86
2022/02/12 01:46:35;;;;;;;;;;;;;;;4.52;59.43;101113.84;4304975;33;19988;-86
2022/02/12 01:49:00;;;;;;;;;;;;;;;4.66;59.44;101112.31;4318379;33;20268;-86
2022/02/12 01:51:25;;;;;;;;;;;;;;;4.79;59.45;101126.25;4329009;33;20015;-86
2022/02/12 01:53:52;;;;;;;;;;;;;;;4.79;59.46;101134.00;4292703;33;20019;-86
2022/02/12 01:56:17;;;;;;;;;;;;;;;4.82;59.45;101141.78;4291929;33;19999;-85
2022/02/12 01:58:43;;;;;;;;;;;;;;;4.74;59.45;101146.84;4304346;33;20299;-86
2022/02/12 02:01:08;;;;;;;;;;;;;;;4.70;59.45;101146.75;4304963;33;20019;-85
2022/02/12 02:03:33;;;;;;;;;;;;;;;4.61;59.44;101130.31;4304792;33;19984;-86
2022/02/12 02:05:59;;;;;;;;;;;;;;;4.57;59.44;101125.09;4304788;33;20016;-85
2022/02/12 02:08:24;;;;;;;;;;;;;;;4.52;59.44;101137.91;4292954;33;19988;-85
2022/02/12 02:10:51;;;;;;;;;;;;;;;4.56;59.43;101139.69;4304677;33;20014;-86
2022/02/12 02:13:26;;;;;;;;;;;;;;;4.54;59.43;101137.94;4305077;33;20000;-85
2022/02/12 02:15:51;;;;;;;;;;;;;;;4.50;59.44;101129.28;4305151;33;20022;-85
2022/02/12 02:18:16;;;;;;;;;;;;;;;4.43;59.43;101126.59;4304886;33;20039;-86
2022/02/12 02:20:42;;;;;;;;;;;;;;;4.32;59.41;101127.31;4292666;33;20400;-85
2022/02/12 02:23:07;;;;;;;;;;;;;;;4.30;59.42;101139.31;4318071;33;19984;-87
2022/02/12 02:25:32;;;;;;;;;;;;;;;4.30;59.43;101141.00;4304556;33;19987;-85
2022/02/12 02:27:57;;;;;;;;;;;;;;;4.22;59.42;101138.28;4304321;33;20169;-84
2022/02/12 02:30:26;;;;;;;;;;;;;;;4.12;59.40;101146.72;4304460;33;20023;-85
2022/02/12 02:32:52;;;;;;;;;;;;;;;4.32;59.42;101149.63;4293096;33;20052;-85
2022/02/12 02:35:19;;;;;;;;;;;;;;;4.44;59.43;101165.28;4291853;33;30397;-85
2022/02/12 02:37:44;;;;;;;;;;;;;;;4.35;59.42;101174.59;4304934;33;20068;-85
2022/02/12 02:40:13;;;;;;;;;;;;;;;4.35;59.42;101174.59;4304725;33;19984;-85
2022/02/12 02:42:45;;;;;;;;;;;;;;;4.23;59.42;101185.53;4304714;33;19996;-86
2022/02/12 02:45:11;;;;;;;;;;;;;;;4.38;59.43;101184.94;4304748;33;19984;-86
2022/02/12 02:47:40;;;;;;;;;;;;;;;4.28;59.42;101194.25;4292570;33;20061;-85
2022/02/12 02:55:59;;;;;;;;;;;;;;;4.26;59.41;101186.50;4305311;33;19983;-85
2022/02/12 02:58:19;;;;;;;;;;;;;;;4.30;59.42;101193.44;4318077;33;20056;-86
2022/02/12 03:00:44;;;;;;;;;;;;;;;4.13;59.42;101199.13;4304388;33;20011;-86
2022/02/12 03:03:10;;;;;;;;;;;;;;;4.26;59.41;101203.66;4292420;33;19984;-86
2022/02/12 03:05:35;;;;;;;;;;;;;;;4.14;59.41;101206.87;4292237;33;20003;-87
2022/02/12 03:08:00;;;;;;;;;;;;;;;3.98;59.41;101215.19;4303859;33;20292;-86
2022/02/12 03:10:25;;;;;;;;;;;;;;;4.03;59.41;101217.88;4317748;33;19979;-86
2022/02/12 03:12:51;;;;;;;;;;;;;;;4.07;59.41;101219.66;4317767;33;20023;-86
2022/02/12 03:15:16;;;;;;;;;;;;;;;4.05;59.40;101223.91;4316464;33;20007;-86
2022/02/12 03:17:42;;;;;;;;;;;;;;;4.07;59.41;101225.66;4317791;33;19984;-86
2022/02/12 03:20:07;;;;;;;;;;;;;;;3.98;59.41;101225.47;4304080;33;19984;-86
2022/02/12 03:22:33;;;;;;;;;;;;;;;3.91;59.40;101231.38;4316227;33;20020;-85
2022/02/12 03:24:58;;;;;;;;;;;;;;;3.96;59.40;101240.03;4291855;33;20010;-86
2022/02/12 03:27:23;;;;;;;;;;;;;;;4.06;59.41;101246.25;4304058;33;19995;-86
2022/02/12 03:29:48;;;;;;;;;;;;;;;3.83;59.40;101250.97;4303998;33;20007;-86
2022/02/12 03:32:14;;;;;;;;;;;;;;;3.92;59.40;101240.84;4291932;33;20003;-86
2022/02/12 03:34:39;;;;;;;;;;;;;;;3.89;59.39;101241.66;4292092;33;20389;-86
2022/02/12 03:37:04;;;;;;;;;;;;;;;3.73;59.39;101238.75;4303743;33;23140;-86
2022/02/12 03:39:29;;;;;;;;;;;;;;;3.70;59.39;101243.00;4291653;33;22094;-86
2022/02/12 03:41:54;;;;;;;;;;;;;;;3.72;59.39;101253.31;4317446;33;19988;-85
2022/02/12 03:44:20;;;;;;;;;;;;;;;3.64;59.38;101260.03;4317519;33;20377;-86
2022/02/12 03:46:45;;;;;;;;;;;;;;;3.60;59.38;101261.69;4317314;33;19984;-86
2022/02/12 03:49:10;;;;;;;;;;;;;;;3.64;59.38;101265.19;4303417;33;27706;-88
2022/02/12 03:51:35;;;;;;;;;;;;;;;3.72;59.38;101261.03;4303938;33;20000;-86
2022/02/12 03:54:01;;;;;;;;;;;;;;;3.79;59.39;101259.50;4317116;33;20401;-86
2022/02/12 03:56:26;;;;;;;;;;;;;;;3.73;59.39;101259.34;4303871;33;20279;-85
2022/02/12 03:58:51;;;;;;;;;;;;;;;3.83;59.40;101262.16;4303636;33;20158;-87
2022/02/12 04:01:16;;;;;;;;;;;;;;;3.98;59.40;101272.72;4291144;33;23287;-86
2022/02/12 04:03:42;;;;;;;;;;;;;;;3.93;59.40;101284.66;4317171;33;19980;-84
2022/02/12 04:06:07;;;;;;;;;;;;;;;4.03;59.40;101285.72;4303751;33;19991;-87
2022/02/12 04:08:32;;;;;;;;;;;;;;;3.96;59.40;101283.84;4290956;33;26445;-86
2022/02/12 04:10:57;;;;;;;;;;;;;;;3.86;59.40;101281.94;4291563;33;20484;-86
2022/02/12 04:13:23;;;;;;;;;;;;;;;3.75;59.38;101283.41;4303614;33;20004;-86
2022/02/12 04:15:48;;;;;;;;;;;;;;;3.66;59.38;101276.38;4303740;33;20044;-88
2022/02/12 04:18:14;;;;;;;;;;;;;;;3.82;59.39;101270.72;4290894;33;27131;-87
2022/02/12 04:20:39;;;;;;;;;;;;;;;3.77;59.39;101276.59;4292716;33;19992;-86
2022/02/12 04:23:05;;;;;;;;;;;;;;;3.67;59.38;101272.97;4293060;33;20502;-86
2022/02/12 04:25:30;;;;;;;;;;;;;;;3.80;59.39;101281.81;4305682;33;19999;-86
2022/02/12 04:27:55;;;;;;;;;;;;;;;3.39;59.37;101279.25;4305587;33;20027;-86
2022/02/12 04:30:20;;;;;;;;;;;;;;;3.62;59.38;101282.31;4319056;33;20017;-87
2022/02/12 04:32:46;;;;;;;;;;;;;;;3.77;59.39;101280.03;4305309;33;19999;-87
2022/02/12 04:35:13;;;;;;;;;;;;;;;3.87;59.39;101279.38;4317660;33;20007;-88
2022/02/12 04:37:38;;;;;;;;;;;;;;;3.82;59.38;101281.00;4317670;33;20000;-87
2022/02/12 04:40:04;;;;;;;;;;;;;;;3.76;59.38;101280.00;4305320;33;20224;-87
2022/02/12 04:42:29;;;;;;;;;;;;;;;3.64;59.38;101278.94;4293283;33;19995;-87
2022/02/12 04:44:54;;;;;;;;;;;;;;;3.57;59.38;101281.34;4318920;33;19990;-88
2022/02/12 04:47:20;;;;;;;;;;;;;;;3.69;59.39;101273.87;4317468;33;20019;-88
2022/02/12 04:49:46;;;;;;;;;;;;;;;3.76;59.38;101280.00;4305510;33;20028;-88
2022/02/12 04:52:12;;;;;;;;;;;;;;;3.55;59.38;101281.31;4317520;33;20676;-89
2022/02/12 04:54:37;;;;;;;;;;;;;;;3.71;59.39;101279.91;4317430;33;19991;-87
2022/02/12 04:57:03;;;;;;;;;;;;;;;3.32;59.37;101288.56;4305320;33;20300;-87
2022/02/12 04:59:28;;;;;;;;;;;;;;;3.56;59.38;101287.34;4317390;33;19992;-86
2022/02/12 05:01:53;;;;;;;;;;;;;;;3.50;59.37;101294.91;4292673;33;25364;-86
2022/02/12 05:04:19;;;;;;;;;;;;;;;3.20;59.35;101292.53;4292637;33;29115;-86
2022/02/12 05:06:44;;;;;;;;;;;;;;;3.38;59.36;101291.25;4317559;33;20031;-86
2022/02/12 05:09:13;;;;;;;;;;;;;;;3.42;59.37;101292.19;4305353;33;19998;-86
2022/02/12 05:11:39;;;;;;;;;;;;;;;3.37;59.36;101302.38;4318728;33;20338;-86
2022/02/12 05:14:04;;;;;;;;;;;;;;;3.39;59.37;101302.41;4305306;33;19980;-86
2022/02/12 05:16:29;;;;;;;;;;;;;;;3.50;59.37;101300.06;4305458;33;20056;-87
2022/02/12 05:18:54;;;;;;;;;;;;;;;3.50;59.38;101308.66;4304738;33;24613;-86
2022/02/12 05:21:20;;;;;;;;;;;;;;;3.50;59.37;101308.66;4305202;33;20023;-85
2022/02/12 05:23:45;;;;;;;;;;;;;;;3.46;59.38;101313.72;4304823;33;20293;-86
2022/02/12 05:26:10;;;;;;;;;;;;;;;3.53;59.38;101307.84;4305075;33;19992;-86
2022/02/12 05:28:35;;;;;;;;;;;;;;;3.43;59.37;101311.94;4318480;33;19996;-86
2022/02/12 05:31:01;;;;;;;;;;;;;;;3.49;59.37;101314.63;4292864;33;20023;-86
2022/02/12 05:33:26;;;;;;;;;;;;;;;3.50;59.37;101318.94;4318414;33;19992;-86
2022/02/12 05:35:51;;;;;;;;;;;;;;;3.58;59.38;101321.72;4305186;33;20028;-86
2022/02/12 05:38:17;;;;;;;;;;;;;;;3.53;59.38;101323.28;4318563;33;19991;-85
2022/02/12 05:40:43;;;;;;;;;;;;;;;3.49;59.37;101326.66;4318462;33;20044;-85
2022/02/12 05:43:08;;;;;;;;;;;;;;;3.58;59.38;101332.88;4305103;33;19988;-85
2022/02/12 05:45:33;;;;;;;;;;;;;;;3.38;59.36;101340.16;4318096;33;20015;-85
2022/02/12 05:47:59;;;;;;;;;;;;;;;3.28;59.36;101332.19;4293058;33;20007;-86
2022/02/12 05:50:27;;;;;;;;;;;;;;;3.29;59.36;101333.91;4318417;33;20803;-86
2022/02/12 05:52:52;;;;;;;;;;;;;;;3.15;59.35;101333.62;4293220;33;20059;-85
2022/02/12 05:55:18;;;;;;;;;;;;;;;3.28;59.36;101334.75;4304946;33;20007;-85
2022/02/12 05:57:43;;;;;;;;;;;;;;;3.30;59.36;101340.78;4317837;33;26231;-86
2022/02/12 06:00:08;;;;;;;;;;;;;;;3.36;59.36;101344.41;4304892;33;20004;-85
2022/02/12 06:02:34;;;;;;;;;;;;;;;3.21;59.36;101348.31;4316991;33;19988;-85
2022/02/12 06:04:59;;;;;;;;;;;;;;;3.17;59.34;101357.69;4317875;33;22783;-84
2022/02/12 06:07:24;;;;;;;;;;;;;;;3.42;59.37;101360.81;4318151;33;20143;-84
2022/02/12 06:09:49;;;;;;;;;;;;;;;3.44;59.37;101356.56;4304453;33;19995;-84
2022/02/12 06:12:14;;;;;;;;;;;;;;;3.44;59.37;101362.59;4317848;33;24676;-85
2022/02/12 06:14:40;;;;;;;;;;;;;;;3.35;59.37;101367.53;4304951;33;20394;-86
2022/02/12 06:17:05;;;;;;;;;;;;;;;3.41;59.37;101364.22;4304806;33;20003;-87
2022/02/12 06:19:31;;;;;;;;;;;;;;;3.46;59.38;101366.06;4292611;33;20579;-86
2022/02/12 06:21:56;;;;;;;;;;;;;;;3.50;59.37;101373.00;4304784;33;19995;-86
2022/02/12 06:24:21;;;;;;;;;;;;;;;3.45;59.37;101372.03;4292662;33;20141;-86
2022/02/12 06:26:51;;;;;;;;;;;;;;;3.55;59.38;101368.87;4317722;33;25996;-86
2022/02/12 06:29:17;;;;;;;;;;;;;;;3.83;59.40;101370.31;4318226;33;20011;-86
2022/02/12 06:31:43;;;;;;;;;;;;;;;3.87;59.39;101369.56;4329160;33;20003;-86
2022/02/12 06:34:08;;;;;;;;;;;;;;;3.80;59.39;101365.13;4292144;33;23044;-85
2022/02/12 06:36:33;;;;;;;;;;;;;;;3.85;59.40;101372.94;4292172;33;23180;-85
2022/02/12 06:38:58;;;;;;;;;;;;;;;3.70;59.39;101381.19;4291927;33;20004;-86
2022/02/12 06:41:23;;;;;;;;;;;;;;;3.73;59.39;101378.69;4303737;33;30241;-87
2022/02/12 06:43:49;;;;;;;;;;;;;;;3.92;59.40;101377.38;4291602;33;20019;-86
2022/02/12 06:46:14;;;;;;;;;;;;;;;3.94;59.40;101381.72;4292173;33;19995;-87
2022/02/12 06:48:40;;;;;;;;;;;;;;;4.01;59.40;101381.00;4292201;33;19975;-87
2022/02/12 06:51:05;;;;;;;;;;;;;;;4.03;59.40;101381.06;4304632;33;20315;-86
2022/02/12 06:53:33;;;;;;;;;;;;;;;4.11;59.41;101396.66;4303675;33;23380;-87
2022/02/12 06:55:58;;;;;;;;;;;;;;;4.06;59.41;101401.72;4318084;33;20067;-85
2022/02/12 06:58:24;;;;;;;;;;;;;;;4.13;59.41;101405.28;4317643;33;19988;-86
2022/02/12 07:00:49;;;;;;;;;;;;;;;4.25;59.41;101402.94;4316991;33;21925;-87
2022/02/12 07:03:14;;;;;;;;;;;;;;;4.05;59.41;101407.72;4317609;33;22633;-86
2022/02/12 07:05:39;;;;;;;;;;;;;;;4.09;59.41;101403.50;4304424;33;19988;-85
2022/02/12 07:08:05;;;;;;;;;;;;;;;4.22;59.42;101408.03;4303788;33;20322;-86
2022/02/12 07:10:34;;;;;;;;;;;;;;;4.29;59.42;101412.50;4304390;33;19980;-86
2022/02/12 07:12:59;;;;;;;;;;;;;;;4.36;59.43;101416.94;4304691;33;20446;-86
2022/02/12 07:15:24;;;;;;;;;;;;;;;4.54;59.43;101411.28;4304306;33;20432;-85
2022/02/12 07:17:50;;;;;;;;;;;;;;;4.79;59.45;101416.03;4292223;33;19988;-85
2022/02/12 07:20:15;;;;;;;;;;;;;;;4.91;59.45;101412.78;4304263;33;20028;-86
2022/02/12 07:22:41;;;;;;;;;;;;;;;4.93;59.45;101418.84;4303830;33;20099;-85
2022/02/12 07:25:10;;;;;;;;;;;;;;;5.14;59.47;101421.81;4304113;33;20315;-86
2022/02/12 07:27:38;;;;;;;;;;;;;;;5.21;59.47;101425.38;4292141;33;19991;-86
2022/02/12 07:30:03;;;;;;;;;;;;;;;5.37;59.48;101431.62;4292349;33;20503;-85
2022/02/12 07:32:28;;;;;;;;;;;;;;;5.38;59.48;101417.88;4303963;33;20004;-86
2022/02/12 07:34:54;;;;;;;;;;;;;;;5.34;59.48;101427.31;4304154;33;20018;-85
2022/02/12 07:37:19;;;;;;;;;;;;;;;5.52;59.49;101426.72;4304005;33;20251;-86
2022/02/12 07:39:45;;;;;;;;;;;;;;;5.37;59.48;101439.38;4304148;33;19984;-85
2022/02/12 07:42:10;;;;;;;;;;;;;;;5.40;59.49;101439.44;4291998;33;20025;-86
2022/02/12 07:44:35;;;;;;;;;;;;;;;5.51;59.49;101433.59;4304191;33;20000;-85
2022/02/12 07:47:01;;;;;;;;;;;;;;;5.55;59.49;101434.53;4291645;33;19992;-86
2022/02/12 07:49:26;;;;;;;;;;;;;;;5.46;59.48;101434.38;4291548;33;20235;-85
2022/02/12 07:51:51;;;;;;;;;;;;;;;5.48;59.48;101436.16;4303614;33;20046;-86
2022/02/12 07:54:16;;;;;;;;;;;;;;;5.59;59.49;101438.88;4303565;33;20036;-86
2022/02/12 07:56:42;;;;;;;;;;;;;;;5.36;59.48;101455.72;4293007;33;20011;-86
2022/02/12 07:59:07;;;;;;;;;;;;;;;5.51;59.49;101450.81;4318833;33;19984;-85
2022/02/12 08:01:32;;;;;;;;;;;;;;;5.45;59.48;101443.84;4318467;33;20338;-85
2022/02/12 08:04:00;;;;;;;;;;;;;;;5.44;59.48;101448.97;4305279;33;20267;-85
2022/02/12 08:09:10;;;;;;;;;;;;;;;5.62;59.50;101444.09;4318916;33;20397;-85
2022/02/12 08:11:42;;;;;;;;;;;;;;;5.69;59.50;101453.69;4317320;33;20012;-86
2022/02/12 08:14:07;;;;;;;;;;;;;;;5.73;59.50;101460.63;4317843;33;20409;-86
2022/02/12 08:16:32;;;;;;;;;;;;;;;5.94;59.51;101461.84;4305685;33;20156;-86
2022/02/12 08:18:57;;;;;;;;;;;;;;;5.93;59.51;101465.28;4316894;33;30767;-85
2022/02/12 08:21:23;;;;;;;;;;;;;;;5.96;59.51;101465.31;4292470;33;26985;-84
2022/02/12 08:23:48;;;;;;;;;;;;;;;6.12;59.52;101462.06;4305625;33;20311;-85
2022/02/12 08:26:14;;;;;;;;;;;;;;;6.01;59.52;101459.34;4318908;33;19988;-85
2022/02/12 08:28:40;;;;;;;;;;;;;;;6.18;59.52;101462.19;4293435;33;19998;-85
2022/02/12 08:31:05;;;;;;;;;;;;;;;6.34;59.53;101458.91;4305526;33;20323;-86
2022/02/12 08:33:30;;;;;;;;;;;;;;;6.36;59.54;101458.94;4318941;33;20117;-85
2022/02/12 08:35:55;;;;;;;;;;;;;;;6.46;59.54;101465.97;4318576;33;20015;-85
2022/02/12 08:38:21;;;;;;;;;;;;;;;6.53;59.55;101472.09;4305232;33;19992;-86
2022/02/12 08:40:46;;;;;;;;;;;;;;;6.74;59.56;101474.91;4318635;33;20005;-87
2022/02/12 08:43:13;;;;;;;;;;;;;;;6.86;59.56;101474.16;4304648;33;23772;-86
2022/02/12 08:45:39;;;;;;;;;;;;;;;6.87;59.56;101466.44;4293237;33;20007;-86
2022/02/12 08:48:06;;;;;;;;;;;;;;;6.96;59.57;101470.84;4292326;33;33304;-85
2022/02/12 08:50:31;;;;;;;;;;;;;;;7.08;59.57;101474.41;4318564;33;19984;-85
2022/02/12 08:52:56;;;;;;;;;;;;;;;7.24;59.58;101480.59;4304949;33;20101;-85
2022/02/12 08:55:21;;;;;;;;;;;;;;;7.37;59.59;101473.84;4305014;33;20015;-85
2022/02/12 08:57:47;;;;;;;;;;;;;;;7.42;59.60;101464.37;4318587;33;20000;-84
2022/02/12 09:00:12;;;;;;;;;;;;;;;7.60;59.60;101464.53;4292468;33;25013;-86
2022/02/12 09:02:38;;;;;;;;;;;;;;;7.55;59.61;101468.78;4305084;33;20372;-86
2022/02/12 09:05:03;;;;;;;;;;;;;;;7.54;59.61;101467.03;4292568;33;20258;-85
2022/02/12 09:07:28;;;;;;;;;;;;;;;7.58;59.60;101473.16;4304411;33;20044;-85
2022/02/12 09:09:54;;;;;;;;;;;;;;;7.61;59.60;101475.75;4292615;33;20031;-85
2022/02/12 09:12:19;;;;;;;;;;;;;;;7.80;59.62;101471.53;4316695;33;19996;-85
2022/02/12 09:14:44;;;;;;;;;;;;;;;7.93;59.62;101471.66;4304635;33;20836;-86
2022/02/12 09:17:10;;;;;;;;;;;;;;;7.98;59.62;101462.16;4291927;33;33596;-86
2022/02/12 09:19:35;;;;;;;;;;;;;;;7.93;59.63;101469.06;4317898;33;20062;-84
2022/02/12 09:22:00;;;;;;;;;;;;;;;7.80;59.62;101476.72;4304755;33;20017;-85
2022/02/12 09:24:26;;;;;;;;;;;;;;;7.69;59.61;101471.47;4304743;33;20014;-85
2022/02/12 09:26:54;;;;;;;;;;;;;;;7.75;59.61;101475.84;4316668;33;20017;-84
2022/02/12 09:29:19;;;;;;;;;;;;;;;8.02;59.63;101486.38;4299523;33;869194;-86
2022/02/12 09:31:44;;;;;;;;;;;;;;;8.15;59.64;101483.03;4321064;33;19976;-84
2022/02/12 09:34:10;;;;;;;;;;;;;;;8.10;59.63;101486.44;4316061;33;28032;-85
2022/02/12 09:36:37;;;;;;;;;;;;;;;8.19;59.63;101476.97;4318396;33;20343;-87
2022/02/12 09:39:02;;;;;;;;;;;;;;;8.12;59.63;101484.72;4292713;33;19996;-86
2022/02/12 09:41:27;;;;;;;;;;;;;;;8.18;59.63;101477.84;4304851;33;20081;-84
2022/02/12 09:43:55;;;;;;;;;;;;;;;8.35;59.64;101469.31;4304795;33;20365;-85
2022/02/12 09:46:41;;;;;;;;;;;;;;;8.34;59.65;101478.84;4318088;33;20035;-86
2022/02/12 09:49:08;;;;;;;;;;;;;;;8.36;59.64;101481.44;4304327;33;20056;-86
2022/02/12 09:51:34;;;;;;;;;;;;;;;8.63;59.66;101481.53;4305186;33;20139;-86
2022/02/12 09:53:59;;;;;;;;;;;;;;;8.87;59.67;101480.75;4318475;33;19992;-85
2022/02/12 09:56:25;;;;;;;;;;;;;;;8.83;59.68;101477.28;4292570;33;20227;-86
2022/02/12 09:58:50;;;;;;;;;;;;;;;8.89;59.68;101477.28;4291791;33;27314;-86
2022/02/12 10:01:16;;;;;;;;;;;;;;;8.94;59.68;101477.28;4304126;33;20022;-86
2022/02/12 10:03:42;;;;;;;;;;;;;;;8.77;59.67;101477.28;4292675;33;20008;-87
2022/02/12 10:06:07;;;;;;;;;;;;;;;8.85;59.68;101474.69;4304878;33;19965;-86
2022/02/12 10:08:36;;;;;;;;;;;;;;;8.71;59.66;101469.44;4292686;33;20471;-86
2022/02/12 10:11:10;;;;;;;;;;;;;;;8.86;59.67;101479.03;4305267;33;20024;-87
2022/02/12 10:13:35;;;;;;;;;;;;;;;9.02;59.68;101474.75;4304617;33;20043;-86
2022/02/12 10:16:01;;;;;;;;;;;;;;;9.12;59.70;101479.06;4291438;33;29173;-86
2022/02/12 10:18:27;;;;;;;;;;;;;;;9.19;59.70;101467.81;4303656;33;19988;-86
2022/02/12 10:20:54;;;;;;;;;;;;;;;9.37;59.70;101475.62;4318122;33;20397;-86
2022/02/12 10:23:19;;;;;;;;;;;;;;;9.57;59.70;101464.37;4317960;33;20035;-86
2022/02/12 10:25:45;;;;;;;;;;;;;;;9.64;59.71;101463.50;4317931;33;19984;-86
2022/02/12 10:28:11;;;;;;;;;;;;;;;9.68;59.72;101462.62;4317669;33;19981;-86
2022/02/12 10:30:37;;;;;;;;;;;;;;;9.41;59.70;101461.75;4317820;33;19979;-87
2022/02/12 10:33:03;;;;;;;;;;;;;;;9.64;59.71;101458.28;4317966;33;20040;-86
2022/02/12 10:35:28;;;;;;;;;;;;;;;9.66;59.72;101454.81;4304624;33;19980;-86
2022/02/12 10:38:02;;;;;;;;;;;;;;;9.49;59.72;101459.19;4304430;33;20006;-87
2022/02/12 10:40:27;;;;;;;;;;;;;;;9.80;59.73;101455.69;4304402;33;20007;-86
2022/02/12 10:42:52;;;;;;;;;;;;;;;9.95;59.73;101453.94;4304562;33;19985;-86
2022/02/12 10:45:18;;;;;;;;;;;;;;;10.04;59.74;101444.34;4304463;33;20275;-87
2022/02/12 10:47:44;;;;;;;;;;;;;;;9.90;59.73;101450.44;4317779;33;19980;-87
2022/02/12 10:50:10;;;;;;;;;;;;;;;9.99;59.74;101440.03;4304400;33;19992;-86
2022/02/12 10:52:46;;;;;;;;;;;;;;;10.09;59.75;101442.59;4315938;33;19981;-87
2022/02/12 10:55:29;;;;;;;;;;;;;;;10.25;59.76;101429.59;4317779;33;19976;-86
2022/02/12 10:57:54;;;;;;;;;;;;;;;10.48;59.77;101437.28;4304251;33;19996;-87
2022/02/12 11:00:19;;;;;;;;;;;;;;;10.59;59.77;101422.47;4316295;33;20258;-87
2022/02/12 11:02:45;;;;;;;;;;;;;;;10.26;59.76;101424.38;4304157;33;20282;-86
2022/02/12 11:05:11;;;;;;;;;;;;;;;10.42;59.76;101427.78;4291984;33;20008;-87
2022/02/12 11:07:36;;;;;;;;;;;;;;;10.44;59.76;101423.44;4304302;33;20059;-86
2022/02/12 11:10:01;;;;;;;;;;;;;;;10.54;59.76;101419.03;4304402;33;19999;-86
2022/02/12 11:12:29;;;;;;;;;;;;;;;10.70;59.78;101424.16;4304438;33;20035;-85
2022/02/12 11:14:55;;;;;;;;;;;;;;;10.81;59.79;101421.47;4304425;33;20081;-87
2022/02/12 11:17:22;;;;;;;;;;;;;;;10.95;59.79;101404.03;4292135;33;19996;-87
2022/02/12 11:19:47;;;;;;;;;;;;;;;10.78;59.79;101411.06;4304382;33;19992;-87
2022/02/12 11:22:13;;;;;;;;;;;;;;;10.78;59.78;101411.06;4317596;33;19995;-86
2022/02/12 11:24:39;;;;;;;;;;;;;;;11.03;59.80;101411.78;4304123;33;19980;-85
2022/02/12 11:27:14;;;;;;;;;;;;;;;10.99;59.79;101404.84;4303938;33;20007;-86
2022/02/12 11:29:44;;;;;;;;;;;;;;;11.01;59.80;101403.09;4327599;33;19988;-86
2022/02/12 11:32:10;;;;;;;;;;;;;;;11.26;59.81;101409.84;4291978;33;19980;-86
2022/02/12 11:34:35;;;;;;;;;;;;;;;11.21;59.80;101402.97;4303992;33;19996;-86
2022/02/12 11:37:11;;;;;;;;;;;;;;;11.19;59.81;101383.88;4304126;33;20048;-86
2022/02/12 11:39:36;;;;;;;;;;;;;;;11.30;59.81;101400.25;4304138;33;20006;-86
2022/02/12 11:42:02;;;;;;;;;;;;;;;11.23;59.81;101401.19;4317498;33;20020;-86
2022/02/12 11:44:43;;;;;;;;;;;;;;;11.19;59.81;101405.56;4317144;33;20247;-87
2022/02/12 11:47:09;;;;;;;;;;;;;;;11.22;59.82;101399.47;4304214;33;20051;-86
2022/02/12 11:49:38;;;;;;;;;;;;;;;10.87;59.79;101397.13;4317026;33;19988;-85
2022/02/12 11:52:07;;;;;;;;;;;;;;;11.04;59.80;101406.53;4316751;33;20002;-85
2022/02/12 11:54:47;;;;;;;;;;;;;;;11.35;59.82;101401.06;4315345;33;19999;-87
2022/02/12 11:57:16;;;;;;;;;;;;;;;11.77;59.84;101401.56;4316935;33;19989;-85
2022/02/12 11:59:42;;;;;;;;;;;;;;;12.03;59.85;101393.47;4316582;33;19984;-86
2022/02/12 12:02:07;;;;;;;;;;;;;;;12.19;59.86;101395.00;4303081;33;20000;-85
2022/02/12 12:04:33;;;;;;;;;;;;;;;12.16;59.86;101387.22;4316621;33;20324;-86
2022/02/12 12:07:05;;;;;;;;;;;;;;;12.38;59.88;101391.28;4291263;33;20044;-85
2022/02/12 12:09:31;;;;;;;;;;;;;;;12.38;59.87;101391.28;4303289;33;20012;-84
2022/02/12 12:12:15;;;;;;;;;;;;;;;12.41;59.87;101396.47;4327179;33;19998;-85
2022/02/12 12:14:41;;;;;;;;;;;;;;;12.48;59.88;101387.66;4316627;33;19999;-85
2022/02/12 12:17:06;;;;;;;;;;;;;;;12.76;59.90;101382.03;4303093;33;20302;-85
2022/02/12 12:19:38;;;;;;;;;;;;;;;12.65;59.88;101381.34;4315370;33;20016;-85
2022/02/12 12:22:07;;;;;;;;;;;;;;;12.59;59.89;101382.31;4303293;33;19999;-85
2022/02/12 12:24:33;;;;;;;;;;;;;;;12.33;59.87;101387.88;4303326;33;20002;-85
2022/02/12 12:26:58;;;;;;;;;;;;;;;12.43;59.88;101386.88;4314775;33;20329;-85
2022/02/12 12:32:13;;;;;;;;;;;;;;;12.38;59.87;101373.00;4305192;33;20052;-85
2022/02/12 12:34:48;;;;;;;;;;;;;;;12.14;59.86;101376.81;4316885;33;19964;-85
2022/02/12 12:37:13;;;;;;;;;;;;;;;12.30;59.87;101385.28;4316510;33;20341;-86
2022/02/12 12:39:38;;;;;;;;;;;;;;;12.20;59.86;101375.84;4316207;33;20008;-86
2022/02/12 12:42:10;;;;;;;;;;;;;;;12.07;59.86;101374.31;4303442;33;28555;-86
2022/02/12 12:44:38;;;;;;;;;;;;;;;12.27;59.86;101378.34;4304914;33;20369;-84
2022/02/12 12:47:04;;;;;;;;;;;;;;;12.36;59.88;101376.53;4318174;33;20012;-86
2022/02/12 12:49:30;;;;;;;;;;;;;;;12.35;59.88;101380.88;4305080;33;19989;-85
2022/02/12 12:51:56;;;;;;;;;;;;;;;12.36;59.88;101381.75;4318240;33;19999;-84